Time;durP1;ratioP1;P1;durP2;ratioP2;P2;SDS_P1;SDS_P2;PMS_P1;PMS_P2;Temp;Humidity;BMP_temperature;BMP_pressure;BME280_temperature;BME280_humidity;BME280_pressure;Samples;Min_cycle;Max_cycle;Signal;HPM_P1;HPM_P2
2022/04/16 00:01:24;;;;;;;16.95;10.90;;;;;;;;;;5043889;28;20056;-79
2022/04/16 00:03:52;;;;;;;13.25;9.77;;;;;;;;;;5037875;28;20052;-79
2022/04/16 00:06:20;;;;;;;14.90;10.50;;;;;;;;;;5046683;28;20055;-79
2022/04/16 00:08:47;;;;;;;20.05;11.77;;;;;;;;;;5044291;28;20056;-79
2022/04/16 00:11:15;;;;;;;16.55;10.85;;;;;;;;;;5040760;28;20053;-79
2022/04/16 00:13:42;;;;;;;17.58;10.90;;;;;;;;;;5042357;28;20060;-79
2022/04/16 00:16:10;;;;;;;13.45;10.23;;;;;;;;;;5037115;28;20111;-79
2022/04/16 00:18:37;;;;;;;15.20;11.32;;;;;;;;;;5040178;28;20055;-79
2022/04/16 00:21:06;;;;;;;16.20;10.98;;;;;;;;;;5038341;28;20053;-79
2022/04/16 00:23:34;;;;;;;17.33;11.43;;;;;;;;;;5045532;28;20088;-79
2022/04/16 00:26:02;;;;;;;18.08;11.55;;;;;;;;;;5041140;28;20086;-79
2022/04/16 00:28:30;;;;;;;15.90;10.57;;;;;;;;;;5040365;28;20136;-79
2022/04/16 00:30:57;;;;;;;12.38;10.55;;;;;;;;;;5037727;28;20495;-79
2022/04/16 00:33:26;;;;;;;16.27;11.05;;;;;;;;;;5044100;28;20057;-79
2022/04/16 00:35:54;;;;;;;17.70;11.20;;;;;;;;;;5040434;28;20389;-79
2022/04/16 00:38:21;;;;;;;15.93;11.20;;;;;;;;;;5041958;28;20514;-79
2022/04/16 00:40:52;;;;;;;15.82;10.38;;;;;;;;;;5046181;28;20053;-79
2022/04/16 00:43:22;;;;;;;16.10;11.10;;;;;;;;;;5045192;28;20144;-79
2022/04/16 00:45:50;;;;;;;18.73;12.05;;;;;;;;;;5037329;28;20122;-79
2022/04/16 00:48:17;;;;;;;15.13;11.75;;;;;;;;;;5042140;28;20045;-79
2022/04/16 00:50:44;;;;;;;17.60;10.75;;;;;;;;;;5045208;28;20048;-79
2022/04/16 00:53:12;;;;;;;16.38;10.57;;;;;;;;;;5041216;28;20084;-79
2022/04/16 00:55:40;;;;;;;16.77;9.88;;;;;;;;;;5043582;28;20101;-79
2022/04/16 00:58:09;;;;;;;18.83;10.70;;;;;;;;;;5040275;28;20102;-79
2022/04/16 01:00:36;;;;;;;18.05;11.82;;;;;;;;;;5041657;28;20119;-78
2022/04/16 01:03:04;;;;;;;16.20;10.73;;;;;;;;;;5038653;28;20076;-79
2022/04/16 01:05:31;;;;;;;15.82;10.23;;;;;;;;;;5044412;28;20041;-79
2022/04/16 01:07:59;;;;;;;16.63;11.35;;;;;;;;;;5053457;28;20052;-79
2022/04/16 01:10:27;;;;;;;13.82;10.90;;;;;;;;;;5038804;28;20423;-79
2022/04/16 01:12:54;;;;;;;18.38;10.35;;;;;;;;;;5037591;28;20063;-79
2022/04/16 01:15:24;;;;;;;17.90;11.35;;;;;;;;;;5040943;28;20049;-79
2022/04/16 01:17:51;;;;;;;14.52;10.48;;;;;;;;;;5044596;28;20119;-79
2022/04/16 01:20:19;;;;;;;14.38;10.68;;;;;;;;;;5041179;28;20044;-79
2022/04/16 01:22:48;;;;;;;15.57;11.15;;;;;;;;;;5045383;28;20060;-79
2022/04/16 01:25:15;;;;;;;14.48;11.00;;;;;;;;;;5039846;28;20132;-79
2022/04/16 01:27:45;;;;;;;14.07;10.77;;;;;;;;;;5041913;28;20036;-79
2022/04/16 01:30:13;;;;;;;14.93;10.02;;;;;;;;;;5048215;28;20114;-79
2022/04/16 01:32:41;;;;;;;17.60;11.45;;;;;;;;;;5047074;28;20053;-79
2022/04/16 01:35:08;;;;;;;16.15;10.93;;;;;;;;;;5040225;28;20130;-79
2022/04/16 01:37:37;;;;;;;16.92;11.18;;;;;;;;;;5045046;28;20052;-79
2022/04/16 01:40:07;;;;;;;13.85;10.50;;;;;;;;;;5043928;28;20143;-79
2022/04/16 01:42:34;;;;;;;13.48;10.80;;;;;;;;;;5042283;28;20057;-79
2022/04/16 01:45:02;;;;;;;16.92;10.32;;;;;;;;;;5043499;28;20442;-79
2022/04/16 01:47:29;;;;;;;14.90;10.55;;;;;;;;;;5046775;28;20051;-79
2022/04/16 01:49:56;;;;;;;22.15;12.15;;;;;;;;;;5037096;28;20403;-79
2022/04/16 01:52:24;;;;;;;17.05;11.02;;;;;;;;;;5040504;28;20052;-79
2022/04/16 01:54:51;;;;;;;20.02;12.40;;;;;;;;;;5039329;28;20064;-79
2022/04/16 01:57:20;;;;;;;18.45;11.88;;;;;;;;;;5042901;28;20064;-79
2022/04/16 01:59:48;;;;;;;18.27;11.48;;;;;;;;;;5043146;28;20052;-79
2022/04/16 02:02:15;;;;;;;18.15;12.10;;;;;;;;;;5038122;28;20068;-79
2022/04/16 02:04:42;;;;;;;18.50;11.70;;;;;;;;;;5037475;28;20045;-78
2022/04/16 02:07:09;;;;;;;17.33;11.93;;;;;;;;;;5038961;28;20045;-79
2022/04/16 02:09:37;;;;;;;21.38;13.38;;;;;;;;;;5036867;28;20098;-79
2022/04/16 02:12:04;;;;;;;19.67;13.25;;;;;;;;;;5039952;28;20443;-79
2022/04/16 02:14:33;;;;;;;16.88;13.00;;;;;;;;;;5040963;28;20488;-79
2022/04/16 02:17:00;;;;;;;16.02;13.25;;;;;;;;;;5042783;28;20060;-79
2022/04/16 02:19:28;;;;;;;19.27;14.07;;;;;;;;;;5044565;28;20077;-79
2022/04/16 02:21:55;;;;;;;17.98;12.85;;;;;;;;;;5045258;28;20512;-79
2022/04/16 02:24:22;;;;;;;20.92;13.73;;;;;;;;;;5044023;28;20048;-79
2022/04/16 02:26:49;;;;;;;17.83;12.90;;;;;;;;;;5037606;28;20060;-79
2022/04/16 02:29:16;;;;;;;20.70;13.13;;;;;;;;;;5033568;28;20045;-79
2022/04/16 02:31:47;;;;;;;19.08;13.40;;;;;;;;;;5044932;28;20053;-79
2022/04/16 02:34:16;;;;;;;18.55;13.75;;;;;;;;;;5044062;28;20561;-79
2022/04/16 02:36:43;;;;;;;24.10;15.88;;;;;;;;;;5040322;28;20389;-79
2022/04/16 02:39:11;;;;;;;22.38;14.50;;;;;;;;;;5039020;28;20041;-79
2022/04/16 02:41:38;;;;;;;19.10;13.50;;;;;;;;;;5044282;28;20045;-79
2022/04/16 02:44:05;;;;;;;23.23;15.05;;;;;;;;;;5043990;28;20069;-79
2022/04/16 02:49:19;;;;;;;21.70;14.52;;;;;;;;;;5042633;28;20056;-79
2022/04/16 02:51:46;;;;;;;20.88;14.82;;;;;;;;;;5043469;28;20143;-79
2022/04/16 02:54:14;;;;;;;21.77;15.65;;;;;;;;;;5042082;28;20122;-79
2022/04/16 02:56:41;;;;;;;20.40;15.35;;;;;;;;;;5034811;28;20053;-79
2022/04/16 02:59:08;;;;;;;22.58;15.95;;;;;;;;;;5033180;28;20050;-79
2022/04/16 03:01:35;;;;;;;23.85;16.42;;;;;;;;;;5037484;28;20057;-79
2022/04/16 03:04:02;;;;;;;24.70;15.90;;;;;;;;;;5040753;28;20045;-79
2022/04/16 03:06:31;;;;;;;24.02;15.23;;;;;;;;;;5045242;28;20052;-79
2022/04/16 03:08:58;;;;;;;23.58;16.17;;;;;;;;;;5039991;28;20503;-79
2022/04/16 03:11:25;;;;;;;23.67;16.13;;;;;;;;;;5035708;28;20056;-79
2022/04/16 03:13:52;;;;;;;23.02;16.38;;;;;;;;;;5041749;28;20057;-79
2022/04/16 03:19:05;;;;;;;22.27;15.57;;;;;;;;;;5050203;28;20056;-79
2022/04/16 03:21:33;;;;;;;22.13;15.57;;;;;;;;;;5033887;28;20045;-79
2022/04/16 03:24:01;;;;;;;22.77;15.02;;;;;;;;;;5045058;28;20122;-79
2022/04/16 03:26:28;;;;;;;22.25;15.57;;;;;;;;;;5045207;28;20048;-79
2022/04/16 03:28:55;;;;;;;24.08;16.48;;;;;;;;;;5039626;28;20491;-79
2022/04/16 03:31:22;;;;;;;22.23;15.77;;;;;;;;;;5045510;28;20064;-79
2022/04/16 03:33:49;;;;;;;22.48;16.13;;;;;;;;;;5039986;28;20049;-79
2022/04/16 03:36:17;;;;;;;21.15;16.58;;;;;;;;;;5039478;28;20057;-79
2022/04/16 03:38:45;;;;;;;21.80;16.65;;;;;;;;;;5036586;28;20049;-79
2022/04/16 03:41:13;;;;;;;27.17;16.90;;;;;;;;;;5037625;28;20053;-79
2022/04/16 03:43:40;;;;;;;20.92;15.45;;;;;;;;;;5038489;28;20052;-79
2022/04/16 03:46:07;;;;;;;19.33;15.40;;;;;;;;;;5032286;28;20095;-79
2022/04/16 03:48:34;;;;;;;23.35;15.85;;;;;;;;;;5035763;28;20482;-79
2022/04/16 03:51:02;;;;;;;21.15;15.93;;;;;;;;;;5036685;28;20094;-79
2022/04/16 03:53:29;;;;;;;22.20;15.55;;;;;;;;;;5035912;28;20064;-79
2022/04/16 04:01:33;;;;;;;23.85;17.05;;;;;;;;;;4985042;28;20417;-79
2022/04/16 04:04:00;;;;;;;27.83;16.63;;;;;;;;;;5029120;28;20142;-79
2022/04/16 04:06:28;;;;;;;27.60;17.23;;;;;;;;;;5035419;28;20045;-79
2022/04/16 04:08:55;;;;;;;26.08;18.02;;;;;;;;;;5039886;28;20114;-79
2022/04/16 04:11:23;;;;;;;26.85;19.55;;;;;;;;;;5040050;28;20057;-79
2022/04/16 04:13:51;;;;;;;26.88;18.42;;;;;;;;;;5041149;28;20693;-79
2022/04/16 04:16:19;;;;;;;25.08;18.95;;;;;;;;;;5044825;28;20045;-79
2022/04/16 04:18:46;;;;;;;26.92;19.10;;;;;;;;;;5044503;28;20459;-79
2022/04/16 04:21:14;;;;;;;26.95;19.60;;;;;;;;;;5047506;28;20056;-79
2022/04/16 04:23:41;;;;;;;28.77;19.13;;;;;;;;;;5042505;28;20068;-79
2022/04/16 04:26:08;;;;;;;29.52;20.08;;;;;;;;;;5046511;28;20052;-79
2022/04/16 04:28:37;;;;;;;26.40;18.95;;;;;;;;;;5039358;28;20120;-79
2022/04/16 04:31:04;;;;;;;32.05;20.52;;;;;;;;;;5044136;28;20053;-79
2022/04/16 04:33:34;;;;;;;27.92;19.27;;;;;;;;;;5042869;28;20053;-79
2022/04/16 04:36:01;;;;;;;28.10;19.92;;;;;;;;;;5044074;28;20208;-79
2022/04/16 04:38:28;;;;;;;36.92;21.48;;;;;;;;;;5045488;28;20431;-79
2022/04/16 04:40:55;;;;;;;30.88;20.30;;;;;;;;;;5039482;28;20103;-79
2022/04/16 04:43:23;;;;;;;27.33;19.83;;;;;;;;;;5038576;28;20053;-79
2022/04/16 04:45:51;;;;;;;30.77;21.52;;;;;;;;;;5044834;28;20050;-79
2022/04/16 04:48:19;;;;;;;28.15;19.70;;;;;;;;;;5044349;28;20053;-79
2022/04/16 04:50:46;;;;;;;30.52;20.77;;;;;;;;;;5046641;28;20560;-79
2022/04/16 04:53:13;;;;;;;29.23;20.15;;;;;;;;;;5045955;28;20103;-79
2022/04/16 04:55:41;;;;;;;31.73;21.13;;;;;;;;;;5047079;28;20675;-79
2022/04/16 04:58:09;;;;;;;32.30;20.98;;;;;;;;;;5041186;28;20053;-79
2022/04/16 05:00:36;;;;;;;29.95;20.92;;;;;;;;;;5041420;28;20067;-79
2022/04/16 05:03:04;;;;;;;31.63;20.73;;;;;;;;;;5042364;28;20068;-79
2022/04/16 05:05:32;;;;;;;28.77;19.83;;;;;;;;;;5047146;28;20059;-79
2022/04/16 05:07:59;;;;;;;29.05;19.90;;;;;;;;;;5050629;28;20390;-79
2022/04/16 05:10:26;;;;;;;29.17;20.10;;;;;;;;;;5036677;28;20059;-79
2022/04/16 05:12:57;;;;;;;27.73;20.63;;;;;;;;;;5047281;28;20088;-79
2022/04/16 05:15:24;;;;;;;27.48;19.92;;;;;;;;;;5042305;28;20053;-80
2022/04/16 05:17:51;;;;;;;28.52;20.30;;;;;;;;;;5036050;28;20531;-79
2022/04/16 05:20:21;;;;;;;27.63;20.75;;;;;;;;;;5037208;28;20044;-79
2022/04/16 05:22:48;;;;;;;29.42;21.20;;;;;;;;;;5038504;28;20053;-79
2022/04/16 05:25:15;;;;;;;30.13;21.98;;;;;;;;;;5035493;28;20057;-78
2022/04/16 05:27:42;;;;;;;30.10;21.13;;;;;;;;;;5039610;28;20059;-78
2022/04/16 05:30:22;;;;;;;29.17;21.08;;;;;;;;;;5037084;28;20049;-79
2022/04/16 05:32:50;;;;;;;26.63;20.92;;;;;;;;;;5036481;28;20049;-78
2022/04/16 05:35:18;;;;;;;32.42;23.10;;;;;;;;;;5037353;28;20071;-79
2022/04/16 05:37:47;;;;;;;31.70;22.30;;;;;;;;;;5041617;28;20049;-80
2022/04/16 05:40:14;;;;;;;31.92;22.15;;;;;;;;;;5036797;28;20049;-79
2022/04/16 05:42:42;;;;;;;28.38;21.65;;;;;;;;;;5039682;28;20833;-80
2022/04/16 05:45:09;;;;;;;29.48;21.48;;;;;;;;;;5038600;28;20115;-80
2022/04/16 05:47:37;;;;;;;33.40;22.15;;;;;;;;;;5040831;28;20056;-81
2022/04/16 05:50:04;;;;;;;31.65;23.23;;;;;;;;;;5038084;28;20053;-81
2022/04/16 05:52:32;;;;;;;29.33;22.10;;;;;;;;;;5040697;28;20057;-80
2022/04/16 05:55:01;;;;;;;26.35;20.77;;;;;;;;;;5035638;28;20060;-81
2022/04/16 05:57:30;;;;;;;28.70;21.90;;;;;;;;;;5036758;28;20809;-81
2022/04/16 05:59:57;;;;;;;28.17;22.38;;;;;;;;;;5038997;28;20089;-81
2022/04/16 06:02:25;;;;;;;29.08;22.70;;;;;;;;;;5041903;28;20111;-80
2022/04/16 06:04:52;;;;;;;35.28;24.52;;;;;;;;;;5039859;28;20399;-80
2022/04/16 06:07:19;;;;;;;35.85;24.15;;;;;;;;;;5040207;28;20044;-80
2022/04/16 06:09:47;;;;;;;38.53;27.23;;;;;;;;;;5040097;28;20052;-80
2022/04/16 06:12:15;;;;;;;42.80;29.17;;;;;;;;;;5035011;28;20049;-80
2022/04/16 06:14:42;;;;;;;40.45;28.15;;;;;;;;;;5040429;28;20057;-80
2022/04/16 06:17:10;;;;;;;40.55;28.98;;;;;;;;;;5040263;28;20049;-80
2022/04/16 06:19:37;;;;;;;42.03;29.55;;;;;;;;;;5048292;28;20107;-80
2022/04/16 06:22:04;;;;;;;40.97;29.15;;;;;;;;;;5042511;28;20052;-80
2022/04/16 06:24:31;;;;;;;52.50;29.75;;;;;;;;;;5047266;28;20466;-80
2022/04/16 06:26:59;;;;;;;39.95;29.00;;;;;;;;;;5049164;28;20045;-80
2022/04/16 06:29:27;;;;;;;41.47;29.92;;;;;;;;;;5044686;28;20048;-81
2022/04/16 06:31:55;;;;;;;43.25;29.60;;;;;;;;;;5045166;28;20068;-81
2022/04/16 06:34:23;;;;;;;39.42;29.27;;;;;;;;;;5047218;28;20555;-80
2022/04/16 06:36:51;;;;;;;35.72;27.40;;;;;;;;;;5042624;28;20048;-81
2022/04/16 06:39:18;;;;;;;36.72;28.13;;;;;;;;;;5045981;28;20102;-81
2022/04/16 06:41:45;;;;;;;37.63;28.02;;;;;;;;;;5046023;28;20051;-81
2022/04/16 06:44:12;;;;;;;38.28;28.15;;;;;;;;;;5051403;28;20044;-81
2022/04/16 06:46:41;;;;;;;36.03;27.55;;;;;;;;;;5037057;28;20053;-81
2022/04/16 06:49:08;;;;;;;34.40;26.33;;;;;;;;;;5038033;28;20049;-81
2022/04/16 06:51:35;;;;;;;34.45;25.80;;;;;;;;;;5038807;28;20060;-81
2022/04/16 06:54:03;;;;;;;29.85;23.40;;;;;;;;;;5039531;28;20057;-79
2022/04/16 06:56:30;;;;;;;30.95;23.55;;;;;;;;;;5042603;28;20048;-81
2022/04/16 06:58:57;;;;;;;31.05;24.15;;;;;;;;;;5045378;28;20609;-80
2022/04/16 07:01:24;;;;;;;32.00;24.38;;;;;;;;;;5047950;28;20049;-82
2022/04/16 07:03:53;;;;;;;32.83;22.92;;;;;;;;;;5048327;28;20060;-81
2022/04/16 07:06:20;;;;;;;28.33;21.38;;;;;;;;;;5045473;28;20062;-81
2022/04/16 07:08:47;;;;;;;31.52;22.35;;;;;;;;;;5038974;28;20056;-81
2022/04/16 07:11:14;;;;;;;27.98;21.63;;;;;;;;;;5050657;28;20072;-81
2022/04/16 07:13:42;;;;;;;26.88;19.80;;;;;;;;;;5039904;28;20052;-80
2022/04/16 07:16:09;;;;;;;25.23;19.33;;;;;;;;;;5042657;28;20060;-80
2022/04/16 07:18:36;;;;;;;26.83;18.17;;;;;;;;;;5039891;28;20373;-80
2022/04/16 07:21:05;;;;;;;20.45;14.80;;;;;;;;;;5043995;28;20045;-79
2022/04/16 07:23:32;;;;;;;20.67;14.73;;;;;;;;;;5046224;28;20052;-80
2022/04/16 07:25:59;;;;;;;20.10;14.10;;;;;;;;;;5039104;28;20057;-80
2022/04/16 07:28:26;;;;;;;21.02;15.25;;;;;;;;;;5042588;28;20432;-79
2022/04/16 07:30:53;;;;;;;17.40;14.07;;;;;;;;;;5048329;28;20399;-80
2022/04/16 07:33:21;;;;;;;22.80;14.93;;;;;;;;;;5045557;28;20063;-80
2022/04/16 07:35:49;;;;;;;25.25;14.80;;;;;;;;;;5037446;28;20092;-80
2022/04/16 07:38:17;;;;;;;21.60;14.43;;;;;;;;;;5045975;28;20106;-80
2022/04/16 07:40:44;;;;;;;19.40;13.70;;;;;;;;;;5038054;28;20060;-80
2022/04/16 07:43:11;;;;;;;19.67;14.55;;;;;;;;;;5042956;28;20135;-80
2022/04/16 07:45:39;;;;;;;20.65;14.45;;;;;;;;;;5045961;28;20045;-80
2022/04/16 07:48:06;;;;;;;19.17;14.13;;;;;;;;;;5047479;28;20041;-80
2022/04/16 07:50:33;;;;;;;19.25;13.73;;;;;;;;;;5043050;28;20049;-80
2022/04/16 07:53:01;;;;;;;18.48;13.20;;;;;;;;;;5050674;28;20053;-79
2022/04/16 07:55:31;;;;;;;19.38;13.40;;;;;;;;;;5049445;28;20530;-79
2022/04/16 07:57:58;;;;;;;19.02;12.82;;;;;;;;;;5044646;28;20057;-79
2022/04/16 08:00:26;;;;;;;16.73;11.88;;;;;;;;;;5045115;28;20045;-79
2022/04/16 08:02:53;;;;;;;15.50;11.48;;;;;;;;;;5041424;28;20056;-79
2022/04/16 08:05:20;;;;;;;18.50;12.30;;;;;;;;;;5040667;28;20484;-79
2022/04/16 08:07:47;;;;;;;18.33;11.35;;;;;;;;;;5039221;28;20057;-79
2022/04/16 08:10:15;;;;;;;15.30;10.32;;;;;;;;;;5048079;28;20094;-79
2022/04/16 08:12:43;;;;;;;17.50;11.05;;;;;;;;;;5047196;28;20088;-79
2022/04/16 08:15:11;;;;;;;17.08;11.60;;;;;;;;;;5047101;28;20115;-79
2022/04/16 08:17:38;;;;;;;15.65;10.30;;;;;;;;;;5051012;28;20056;-79
2022/04/16 08:20:06;;;;;;;13.07;10.27;;;;;;;;;;5045201;28;20081;-79
2022/04/16 08:22:35;;;;;;;16.05;10.75;;;;;;;;;;5042088;28;20057;-80
2022/04/16 08:27:50;;;;;;;15.70;9.95;;;;;;;;;;5042674;28;20048;-79
2022/04/16 08:30:18;;;;;;;15.85;10.38;;;;;;;;;;5038288;28;20049;-80
2022/04/16 08:32:45;;;;;;;15.57;9.48;;;;;;;;;;5042158;28;20094;-77
2022/04/16 08:35:14;;;;;;;15.30;9.38;;;;;;;;;;5039116;28;20060;-79
2022/04/16 08:37:41;;;;;;;14.50;9.20;;;;;;;;;;5042689;28;20495;-79
2022/04/16 08:40:09;;;;;;;14.57;8.85;;;;;;;;;;5043048;28;20049;-78
2022/04/16 08:42:37;;;;;;;13.40;8.65;;;;;;;;;;5042895;28;20057;-79
2022/04/16 08:45:06;;;;;;;13.93;8.98;;;;;;;;;;5042081;28;20063;-77
2022/04/16 08:47:34;;;;;;;15.65;9.52;;;;;;;;;;5045017;28;20060;-79
2022/04/16 08:50:01;;;;;;;25.17;11.63;;;;;;;;;;5043898;28;20358;-80
2022/04/16 08:52:30;;;;;;;15.50;11.73;;;;;;;;;;5046725;28;20053;-80
2022/04/16 08:54:57;;;;;;;15.45;10.50;;;;;;;;;;5038868;28;20103;-80
2022/04/16 08:57:24;;;;;;;11.43;8.38;;;;;;;;;;5039538;28;20049;-79
2022/04/16 08:59:52;;;;;;;16.08;8.80;;;;;;;;;;5043592;28;20098;-80
2022/04/16 09:02:23;;;;;;;14.73;7.55;;;;;;;;;;5041225;28;20064;-79
2022/04/16 09:04:50;;;;;;;10.55;7.32;;;;;;;;;;5039256;28;20053;-80
2022/04/16 09:07:18;;;;;;;11.25;7.95;;;;;;;;;;5049652;28;20118;-79
2022/04/16 09:09:45;;;;;;;11.60;7.50;;;;;;;;;;5041674;28;20125;-79
2022/04/16 09:12:18;;;;;;;11.93;7.68;;;;;;;;;;5038299;28;20056;-79
2022/04/16 09:14:46;;;;;;;9.68;7.03;;;;;;;;;;5035989;28;20057;-79
2022/04/16 09:17:16;;;;;;;11.90;7.05;;;;;;;;;;5038788;28;20056;-79
2022/04/16 09:19:45;;;;;;;10.35;6.82;;;;;;;;;;5037627;28;20144;-79
2022/04/16 09:22:12;;;;;;;12.45;6.95;;;;;;;;;;5043347;28;20384;-79
2022/04/16 09:24:46;;;;;;;10.95;6.80;;;;;;;;;;5039524;28;20056;-79
2022/04/16 09:27:13;;;;;;;10.02;6.40;;;;;;;;;;5042635;28;20064;-79
2022/04/16 09:29:40;;;;;;;9.32;5.93;;;;;;;;;;5039325;28;20049;-79
2022/04/16 09:32:08;;;;;;;10.68;5.00;;;;;;;;;;5038254;28;20061;-79
2022/04/16 09:34:35;;;;;;;9.82;5.50;;;;;;;;;;5044363;28;20613;-79
2022/04/16 09:37:14;;;;;;;7.72;5.63;;;;;;;;;;5036009;28;20053;-79
2022/04/16 09:39:42;;;;;;;6.20;4.60;;;;;;;;;;5037419;28;20068;-79
2022/04/16 09:42:09;;;;;;;8.05;5.13;;;;;;;;;;5043591;28;20405;-79
2022/04/16 09:44:36;;;;;;;6.35;4.43;;;;;;;;;;5038859;28;20111;-79
2022/04/16 09:47:04;;;;;;;7.28;4.47;;;;;;;;;;5037643;28;20053;-81
2022/04/16 09:49:34;;;;;;;7.22;4.20;;;;;;;;;;5042985;28;20075;-80
2022/04/16 09:52:02;;;;;;;6.78;4.35;;;;;;;;;;5043745;28;20052;-80
2022/04/16 09:54:31;;;;;;;8.13;4.40;;;;;;;;;;5040921;28;20049;-80
2022/04/16 09:57:02;;;;;;;7.03;4.63;;;;;;;;;;5038060;28;20048;-80
2022/04/16 09:59:31;;;;;;;5.95;4.25;;;;;;;;;;5046308;28;20052;-80
2022/04/16 10:01:59;;;;;;;6.57;4.15;;;;;;;;;;5035748;28;21232;-80
2022/04/16 10:04:26;;;;;;;6.70;4.15;;;;;;;;;;5042803;28;20442;-81
2022/04/16 10:06:54;;;;;;;6.55;4.18;;;;;;;;;;5041273;28;20061;-81
2022/04/16 10:09:23;;;;;;;5.55;3.72;;;;;;;;;;5042502;28;20582;-79
2022/04/16 10:14:43;;;;;;;4.20;3.08;;;;;;;;;;5036673;28;20056;-82
2022/04/16 10:17:16;;;;;;;4.93;3.15;;;;;;;;;;5038670;28;20167;-82
2022/04/16 10:19:47;;;;;;;6.55;2.67;;;;;;;;;;5040320;28;20455;-81
2022/04/16 10:22:23;;;;;;;7.88;2.85;;;;;;;;;;5039625;28;20061;-81
2022/04/16 10:24:51;;;;;;;5.38;2.90;;;;;;;;;;5041279;28;20048;-81
2022/04/16 10:27:23;;;;;;;5.03;3.00;;;;;;;;;;5039658;28;20053;-82
2022/04/16 10:29:50;;;;;;;6.13;3.05;;;;;;;;;;5041013;28;20049;-82
2022/04/16 10:32:18;;;;;;;4.30;3.05;;;;;;;;;;5041161;28;20107;-82
2022/04/16 10:34:46;;;;;;;5.28;3.25;;;;;;;;;;5037647;28;20052;-81
2022/04/16 10:37:24;;;;;;;4.72;3.42;;;;;;;;;;5033744;28;20083;-82
2022/04/16 10:39:53;;;;;;;7.70;3.90;;;;;;;;;;5036044;28;20056;-81
2022/04/16 10:42:31;;;;;;;6.20;3.90;;;;;;;;;;5035691;28;20143;-79
2022/04/16 10:45:09;;;;;;;4.82;3.10;;;;;;;;;;5037350;28;20061;-80
2022/04/16 10:47:37;;;;;;;5.93;3.80;;;;;;;;;;5034669;28;20072;-79
2022/04/16 10:50:09;;;;;;;7.40;4.43;;;;;;;;;;5038956;28;20056;-79
2022/04/16 10:52:36;;;;;;;8.00;3.92;;;;;;;;;;5037633;28;20140;-79
2022/04/16 10:55:06;;;;;;;4.32;3.25;;;;;;;;;;5041127;28;20065;-79
2022/04/16 10:57:35;;;;;;;4.22;2.60;;;;;;;;;;5043271;28;20053;-79
2022/04/16 11:00:13;;;;;;;4.75;2.75;;;;;;;;;;5042453;28;20052;-79
2022/04/16 11:02:40;;;;;;;5.18;2.30;;;;;;;;;;5041539;28;20083;-79
2022/04/16 11:05:09;;;;;;;3.92;2.85;;;;;;;;;;5038319;28;20092;-79
2022/04/16 11:07:37;;;;;;;3.78;2.60;;;;;;;;;;5045900;28;20575;-79
2022/04/16 11:10:04;;;;;;;3.70;2.40;;;;;;;;;;5049097;28;20056;-79
2022/04/16 11:12:31;;;;;;;3.58;2.50;;;;;;;;;;5039999;28;20051;-79
2022/04/16 11:15:00;;;;;;;1.83;1.30;;;;;;;;;;5042115;28;20110;-77
2022/04/16 11:17:28;;;;;;;2.63;1.50;;;;;;;;;;5045775;28;20049;-79
2022/04/16 11:19:59;;;;;;;3.88;1.52;;;;;;;;;;5041871;28;20052;-79
2022/04/16 11:22:27;;;;;;;2.78;2.13;;;;;;;;;;5050345;28;20061;-78
2022/04/16 11:24:55;;;;;;;3.78;2.38;;;;;;;;;;5047287;28;20102;-78
2022/04/16 11:35:54;;;;;;;2.83;2.00;;;;;;;;;;5046800;28;20059;-78
2022/04/16 11:38:26;;;;;;;2.85;1.80;;;;;;;;;;5039910;28;20049;-79
2022/04/16 11:40:54;;;;;;;2.78;1.98;;;;;;;;;;5041657;28;20056;-79
2022/04/16 11:43:23;;;;;;;4.00;1.65;;;;;;;;;;5045749;28;20053;-79
2022/04/16 11:45:52;;;;;;;4.60;1.70;;;;;;;;;;5047268;28;20048;-79
2022/04/16 11:48:19;;;;;;;2.20;1.70;;;;;;;;;;5043795;28;20114;-79
2022/04/16 11:50:47;;;;;;;3.55;2.22;;;;;;;;;;5043221;28;20048;-79
2022/04/16 11:53:14;;;;;;;2.83;1.90;;;;;;;;;;5041968;28;20080;-79
2022/04/16 11:55:48;;;;;;;2.92;1.85;;;;;;;;;;5043268;28;20049;-79
2022/04/16 11:58:16;;;;;;;3.33;1.70;;;;;;;;;;5045036;28;20061;-79
2022/04/16 12:00:50;;;;;;;3.30;1.85;;;;;;;;;;5046912;28;20519;-79
2022/04/16 12:03:19;;;;;;;3.30;1.80;;;;;;;;;;5047450;28;20045;-79
2022/04/16 12:05:48;;;;;;;5.88;1.98;;;;;;;;;;5044853;28;20597;-80
2022/04/16 12:08:16;;;;;;;5.18;2.10;;;;;;;;;;5043696;28;20131;-80
2022/04/16 12:10:46;;;;;;;2.92;2.10;;;;;;;;;;5042399;28;20472;-80
2022/04/16 12:13:14;;;;;;;2.47;1.83;;;;;;;;;;5047974;28;20145;-79
2022/04/16 12:15:42;;;;;;;4.07;2.00;;;;;;;;;;5044017;28;20044;-79
2022/04/16 12:18:10;;;;;;;3.45;2.13;;;;;;;;;;5043853;28;20053;-80
2022/04/16 12:20:42;;;;;;;8.00;2.00;;;;;;;;;;5043683;28;20040;-80
2022/04/16 12:23:13;;;;;;;2.63;1.90;;;;;;;;;;5040413;28;20065;-80
2022/04/16 12:25:42;;;;;;;3.92;2.00;;;;;;;;;;5042169;28;20239;-80
2022/04/16 12:28:12;;;;;;;7.15;1.85;;;;;;;;;;5043794;28;20216;-80
2022/04/16 12:30:39;;;;;;;3.90;1.77;;;;;;;;;;5040348;28;20516;-80
2022/04/16 12:33:07;;;;;;;5.80;3.35;;;;;;;;;;5042265;28;20103;-79
2022/04/16 12:35:35;;;;;;;2.67;1.98;;;;;;;;;;5041363;28;20068;-80
2022/04/16 12:38:05;;;;;;;5.00;1.95;;;;;;;;;;5049783;28;20917;-80
2022/04/16 12:40:33;;;;;;;2.65;1.73;;;;;;;;;;5046327;28;20041;-80
2022/04/16 12:43:00;;;;;;;3.03;1.60;;;;;;;;;;5047138;28;20412;-80
2022/04/16 12:45:30;;;;;;;3.38;1.98;;;;;;;;;;5047611;28;20052;-80
2022/04/16 12:47:57;;;;;;;3.30;1.85;;;;;;;;;;5045394;28;20057;-80
2022/04/16 12:50:26;;;;;;;3.22;2.03;;;;;;;;;;5050504;28;20057;-80
2022/04/16 12:52:53;;;;;;;2.30;1.58;;;;;;;;;;5048172;28;20048;-79
2022/04/16 12:55:22;;;;;;;4.15;1.98;;;;;;;;;;5054075;28;20499;-80
2022/04/16 12:57:50;;;;;;;4.40;1.90;;;;;;;;;;5053195;28;20503;-80
2022/04/16 13:00:17;;;;;;;3.13;1.50;;;;;;;;;;5039817;28;20103;-80
2022/04/16 13:02:46;;;;;;;4.93;1.80;;;;;;;;;;5038865;28;20064;-80
2022/04/16 13:05:14;;;;;;;2.20;1.50;;;;;;;;;;5038561;28;20080;-80
2022/04/16 13:07:41;;;;;;;6.00;1.60;;;;;;;;;;5036861;28;20053;-80
2022/04/16 13:10:09;;;;;;;2.30;1.52;;;;;;;;;;5044760;28;20091;-80
2022/04/16 13:12:38;;;;;;;2.83;1.50;;;;;;;;;;5044765;28;20641;-80
2022/04/16 13:15:06;;;;;;;3.33;1.42;;;;;;;;;;5038657;28;20133;-80
2022/04/16 13:17:33;;;;;;;4.13;1.50;;;;;;;;;;5045375;28;20061;-80
2022/04/16 13:20:00;;;;;;;2.20;1.30;;;;;;;;;;5038128;28;20067;-80
2022/04/16 13:22:28;;;;;;;2.38;1.38;;;;;;;;;;5045704;28;20049;-80
2022/04/16 13:24:55;;;;;;;2.15;1.10;;;;;;;;;;5047373;28;20096;-80
2022/04/16 13:27:22;;;;;;;3.47;1.20;;;;;;;;;;5045142;28;20055;-80
2022/04/16 13:29:51;;;;;;;1.80;1.15;;;;;;;;;;5039982;28;20114;-80
2022/04/16 13:32:19;;;;;;;1.52;1.00;;;;;;;;;;5040973;28;20052;-80
2022/04/16 13:34:46;;;;;;;2.50;1.15;;;;;;;;;;5045041;28;20065;-80
2022/04/16 13:37:13;;;;;;;2.13;0.90;;;;;;;;;;5047558;28;20049;-80
2022/04/16 13:42:25;;;;;;;2.72;1.00;;;;;;;;;;5042568;28;20097;-80
2022/04/16 13:44:54;;;;;;;1.88;1.00;;;;;;;;;;5046737;28;20045;-80
2022/04/16 13:47:22;;;;;;;1.77;1.00;;;;;;;;;;5044510;28;20060;-80
2022/04/16 13:49:49;;;;;;;2.42;1.13;;;;;;;;;;5047890;28;20057;-80
2022/04/16 13:52:16;;;;;;;1.55;0.98;;;;;;;;;;5050222;28;20049;-80
2022/04/16 13:54:44;;;;;;;0.93;0.80;;;;;;;;;;5048099;28;20487;-80
2022/04/16 13:57:11;;;;;;;2.78;1.25;;;;;;;;;;5045859;28;20052;-80
2022/04/16 13:59:39;;;;;;;2.65;1.00;;;;;;;;;;5048261;28;20041;-81
2022/04/16 14:02:08;;;;;;;10.15;1.20;;;;;;;;;;5047197;28;20562;-80
2022/04/16 14:07:20;;;;;;;1.17;1.08;;;;;;;;;;5049309;28;20741;-80
2022/04/16 14:09:47;;;;;;;1.77;1.25;;;;;;;;;;5035001;28;20644;-80
2022/04/16 14:12:17;;;;;;;1.70;1.10;;;;;;;;;;5032820;28;20044;-80
2022/04/16 14:14:44;;;;;;;0.82;0.80;;;;;;;;;;5040150;28;20049;-78
2022/04/16 14:17:13;;;;;;;5.20;1.52;;;;;;;;;;5040698;28;20085;-79
2022/04/16 14:19:41;;;;;;;6.63;1.25;;;;;;;;;;5048047;28;20048;-79
2022/04/16 14:22:08;;;;;;;2.70;1.10;;;;;;;;;;5037586;28;20376;-79
2022/04/16 14:24:35;;;;;;;8.32;1.20;;;;;;;;;;5042576;28;20048;-79
2022/04/16 14:27:03;;;;;;;7.38;1.33;;;;;;;;;;5040094;28;21207;-77
2022/04/16 14:29:32;;;;;;;8.82;1.10;;;;;;;;;;5037903;28;20053;-80
2022/04/16 14:31:59;;;;;;;2.55;1.23;;;;;;;;;;5043039;28;20095;-81
2022/04/16 14:34:28;;;;;;;3.65;1.10;;;;;;;;;;5038696;28;20114;-82
2022/04/16 14:36:57;;;;;;;6.03;1.27;;;;;;;;;;5038482;28;20061;-82
2022/04/16 14:39:24;;;;;;;3.90;1.10;;;;;;;;;;5044862;28;20387;-81
2022/04/16 14:41:51;;;;;;;4.43;1.60;;;;;;;;;;5036542;28;20061;-82
2022/04/16 14:44:19;;;;;;;2.00;1.23;;;;;;;;;;5041567;28;20377;-81
2022/04/16 14:46:46;;;;;;;1.25;1.00;;;;;;;;;;5037911;28;20068;-81
2022/04/16 14:49:15;;;;;;;4.80;1.13;;;;;;;;;;5038845;28;20142;-81
2022/04/16 14:51:44;;;;;;;3.53;1.60;;;;;;;;;;5035475;28;20062;-81
2022/04/16 14:54:12;;;;;;;9.57;1.60;;;;;;;;;;5034330;28;20659;-81
2022/04/16 14:56:39;;;;;;;6.40;1.38;;;;;;;;;;5036946;28;20044;-80
2022/04/16 14:59:07;;;;;;;6.18;1.45;;;;;;;;;;5039969;28;20064;-80
2022/04/16 15:01:34;;;;;;;5.03;1.30;;;;;;;;;;5039648;28;20475;-80